Sunday, December 17, 2017, 4:33 PM EST
Back to Local

KVTA, Newark Heath Airport

Location: Heath, OH, United States Lat: 40.017
Local Time: 4:33 PM EST (21:33 GMT) Lon: -82.467
Time Zone: US/Eastern Elev: 882 ft

Show me the last for .
Show Coded

Time T Td Feel RH Dir Speed Gust Alt SLP Vis Weather Sky Remarks
2017-12-17 15:54 40 33 - 76 - Calm - 30.11 30.14 10 OVC070 6-hr Precip Total (4pm): 0.00"
2017-12-17 14:54 39 33 37 79 240° 3 - 30.13 30.15 10 FEW060 BKN090 OVC110 1-hr Precip Total: Trace
2017-12-17 13:54 40 33 37 76 170° 5 - 30.10 30.12 10 -RA OVC070 1-hr Precip Total: Trace
2017-12-17 12:54 40 32 38 73 150° 3 - 30.11 30.14 10 -RA BKN080 OVC095 1-hr Precip Total: Trace
6-hr Precip Total (1pm): 0.00"
6-hr Min Temp (1pm): 27.0°F
6-hr Max Temp (1pm): 39.9°F
2017-12-17 11:54 39 32 - 75 - Calm - 30.14 30.16 10 BKN110 None
2017-12-17 10:54 36 31 - 81 - Calm - 30.17 30.19 10 CLR None
2017-12-17 09:54 33 29 - 84 - Calm - 30.19 30.22 8 CLR None
2017-12-17 08:54 29 27 - 92 - Calm - 30.21 30.24 6 BR CLR None
2017-12-17 07:54 27 25 - 92 - Calm - 30.17 30.20 9 CLR None
2017-12-17 06:54 27 25 - 92 - Calm - 30.17 30.20 8 CLR 6-hr Min Temp (7am): 23.0°F
6-hr Max Temp (7am): 27.0°F
2017-12-17 05:54 26 23 - 87 - Calm - 30.18 30.20 9 CLR None
2017-12-17 04:54 25 22 - 87 - Calm - 30.17 30.19 9 CLR None
2017-12-17 03:54 25 22 - 87 - Calm - 30.16 30.18 9 CLR None
2017-12-17 02:54 26 22 - 84 - Calm - 30.17 30.19 10 CLR None
2017-12-17 01:54 26 23 22 87 190° 3 - 30.17 30.19 10 CLR None
2017-12-17 00:54 25 23 - 92 - Calm - 30.16 30.18 10 CLR 6-hr Min Temp (1am): 25.0°F
6-hr Max Temp (1am): 35.1°F
2017-12-16 23:54 26 23 - 87 - Calm - 30.16 30.18 10 CLR 24-hr Min Temp (12am): 26.1°F
24-hr Max Temp (12am): 46.9°F
2017-12-16 22:54 27 23 - 84 - Calm - 30.15 30.18 10 CLR None
2017-12-16 21:54 27 23 - 84 - Calm - 30.13 30.15 10 CLR None
2017-12-16 20:54 27 24 - 88 - Calm - 30.11 30.14 10 CLR None
2017-12-16 19:54 30 25 - 81 - Calm - 30.10 30.12 10 CLR None
2017-12-16 18:54 35 25 - 66 - Calm - 30.08 30.10 10 CLR 6-hr Min Temp (7pm): 34.0°F
6-hr Max Temp (7pm): 46.9°F
2017-12-16 17:54 41 27 37 57 200° 6 - 30.05 30.07 10 CLR None
2017-12-16 16:54 44 27 40 50 220° 7 - 30.03 30.05 10 CLR None

Support USWX by starting your Amazon purchase here.